Mendota, IL

3:00 AM CST on January 27, 2015 (GMT -0600)
Illinois Valley Regional-Duncan | Change Station
CLOSE
Current Station
Airport
Location: Peru,
Elevation: 653 ft
Nearby Weather Stations
Active Advisory: Winter Weather Statement Active Notice: Local Storm Report

Elev 653 ft 41.35 °N, 89.15 °W | Updated 25 minutes ago

Fog
Fog
30 °F
Feels Like 24 °F
N
6
Wind Variable Wind from NNW

Today
High -- | Low -- °F
--% Chance of Precip.
Yesterday
High -- | Low -- °F
Precip. -- in
7:13 AM 5:05 PM
First Quarter, 52% visible
Pressure 29.96 in
Visibility 2.5 miles
Clouds Overcast 400 ft
Windchill 24 °F
Dew Point 29 °F
Humidity 98%
Rainfall 0.00 in
Snow Depth Not available.
UV 0 out of 12
Pollen .10 out of 12
Air Quality Not available.
Flu Activity Not available.
METAR KVYS 270835Z AUTO 34005KT 2 1/2SM BR OVC004 M01/M01 A2996 RMK AO2 T10121015

More Conditions Fewer Conditions

Pressure 29.96 in
Visibility 2.5 miles
Clouds Overcast 400 ft
Windchill 24 °F
Dew Point 29 °F
Humidity 98%
Rainfall 0.00 in
Snow Depth Not available.
UV 0 out of 12
Pollen .10 out of 12
Air Quality Not available.
Flu Activity Not available.
METAR KVYS 270835Z AUTO 34005KT 2 1/2SM BR OVC004 M01/M01 A2996 RMK AO2 T10121015

More Conditions Fewer Conditions

10-Day Weather Forecast

Almanac

Astronomy

Jan. 27, 2015 Rise Set
Actual Time
Civil Twilight
Nautical Twilight
Astronomical Twilight
Moon
Length of Visible Light
Length of Day
Tomorrow will be .
, % of the Moon is Illuminated

Today's Extremes

State Highs State Lows

Community

WunderPhotos

Upload Photos

1,790,555 photos uploaded!

WunderBlogs® & News

Nearby

Air Quality

  Air Quality AQ Index Pollutant
Not available.

Snow Depth

Station Depth Elevation

Earthquake Activity

City Distance Mag. Time & Date
Minimum magnitude displayed is 2.5.

Coastal Water Temperatures

Place Temperature

Nearby Weather Stations